Time;durP1;ratioP1;P1;durP2;ratioP2;P2;SDS_P1;SDS_P2;PMS_P1;PMS_P2;Temp;Humidity;BMP_temperature;BMP_pressure;BME280_temperature;BME280_humidity;BME280_pressure;Samples;Min_cycle;Max_cycle;Signal;HPM_P1;HPM_P2
2022/10/19 00:01:14;;;;;;;6.20;4.70;;;18.50;96.60;;;18.90;63.17;99638.75;4955557;28;124504;-74
2022/10/19 00:03:41;;;;;;;7.33;3.77;;;18.50;96.60;;;18.89;63.23;99637.13;4954518;28;123563;-74
2022/10/19 00:06:30;;;;;;;6.57;3.90;;;18.40;96.60;;;18.85;62.96;99631.38;4951858;28;114184;-77
2022/10/19 00:09:08;;;;;;;9.17;4.13;;;18.50;96.60;;;18.84;62.97;99626.94;4949404;28;114445;-74
2022/10/19 00:11:40;;;;;;;6.00;3.90;;;18.40;96.60;;;18.83;62.87;99630.09;4950214;28;123814;-73
2022/10/19 00:14:08;;;;;;;4.50;3.43;;;18.40;96.60;;;18.82;63.00;99631.25;4948869;28;123404;-74
2022/10/19 00:16:37;;;;;;;7.10;4.70;;;18.40;96.60;;;18.80;62.96;99626.00;4949953;28;114182;-73
2022/10/19 00:19:09;;;;;;;5.90;3.90;;;18.40;96.60;;;18.79;62.99;99621.56;4942972;28;113300;-73
2022/10/19 00:21:36;;;;;;;9.20;4.17;;;18.30;96.50;;;18.77;62.79;99623.91;4951903;28;123841;-74
2022/10/19 00:24:03;;;;;;;4.07;3.30;;;18.30;96.50;;;18.74;62.68;99614.22;4953751;28;124215;-74
2022/10/19 00:26:31;;;;;;;6.00;3.87;;;18.30;96.50;;;18.73;62.76;99617.34;4953546;28;113827;-72
2022/10/19 00:29:01;;;;;;;5.17;3.97;;;18.30;96.50;;;18.71;62.82;99614.06;4954897;28;114338;-73
2022/10/19 00:31:28;;;;;;;5.23;3.60;;;18.30;96.50;;;18.69;62.80;99619.19;4965891;28;124154;-73
2022/10/19 00:33:56;;;;;;;5.40;4.00;;;18.30;96.50;;;18.67;62.87;99619.53;4962453;28;123838;-72
2022/10/19 00:36:36;;;;;;;7.17;4.37;;;18.20;96.50;;;18.67;62.79;99618.69;4960595;28;114583;-73
2022/10/19 00:39:05;;;;;;;5.70;4.37;;;18.20;96.50;;;18.63;62.77;99629.78;4964910;28;113180;-73
2022/10/19 00:41:34;;;;;;;8.50;5.83;;;18.20;96.50;;;18.61;62.90;99629.31;4966586;28;123919;-72
2022/10/19 00:44:04;;;;;;;8.30;5.27;;;18.20;96.60;;;18.47;63.11;99638.03;4967932;28;123374;-73
2022/10/19 00:46:36;;;;;;;7.43;4.87;;;18.00;96.60;;;18.37;63.30;99632.84;4958994;28;115302;-72
2022/10/19 00:49:10;;;;;;;7.13;4.60;;;18.30;96.90;;;18.34;63.52;99636.34;4968319;28;116989;-75
2022/10/19 00:51:40;;;;;;;5.17;3.90;;;17.90;96.80;;;18.33;63.43;99629.13;4955091;28;123098;-75
2022/10/19 00:54:08;;;;;;;7.20;5.00;;;17.90;96.80;;;18.33;63.55;99634.72;4963842;28;123758;-75
2022/10/19 00:56:38;;;;;;;10.17;4.77;;;17.90;96.80;;;18.30;63.60;99632.59;4967963;28;113654;-75
2022/10/19 00:59:06;;;;;;;4.10;3.50;;;17.80;96.80;;;18.27;63.66;99633.31;4968123;28;113686;-77
2022/10/19 01:01:34;;;;;;;6.53;4.03;;;17.80;96.90;;;18.27;63.70;99647.28;4952923;28;124049;-78
2022/10/19 01:04:02;;;;;;;8.13;4.10;;;17.80;96.90;;;18.25;63.69;99630.84;4950746;28;124485;-73
2022/10/19 01:06:30;;;;;;;12.00;4.57;;;17.80;96.90;;;18.25;63.74;99642.03;4966221;28;114621;-73
2022/10/19 01:08:56;;;;;;;6.03;3.97;;;17.80;96.90;;;18.25;63.69;99636.44;4962955;28;114086;-73
2022/10/19 01:11:37;;;;;;;4.90;3.77;;;17.80;97.00;;;18.24;63.63;99629.22;4954795;28;124709;-73
2022/10/19 01:14:39;;;;;;;6.03;4.37;;;17.80;96.90;;;18.21;63.67;99637.44;4960656;28;123728;-73
2022/10/19 01:17:32;;;;;;;5.80;3.80;;;17.80;96.90;;;18.17;63.77;99640.13;4972532;28;113833;-75
2022/10/19 01:20:35;;;;;;;4.50;3.43;;;17.80;97.00;;;18.16;63.90;99643.25;4958853;28;114487;-73
2022/10/19 01:23:40;;;;;;;8.33;5.33;;;17.70;97.10;;;18.14;64.05;99626.00;4969907;28;124072;-74
2022/10/19 01:26:30;;;;;;;7.23;4.00;;;17.70;97.10;;;18.15;63.89;99633.22;4963206;28;124690;-75
2022/10/19 01:29:21;;;;;;;6.60;4.70;;;17.70;97.10;;;18.16;64.06;99626.47;4970082;28;114351;-75
2022/10/19 01:32:08;;;;;;;4.87;3.90;;;17.70;97.20;;;18.18;64.13;99621.34;4970050;28;114155;-74
2022/10/19 01:34:49;;;;;;;6.30;4.63;;;17.70;97.20;;;18.18;64.33;99610.97;4971728;28;124142;-74
2022/10/19 01:37:48;;;;;;;9.10;4.73;;;17.70;97.30;;;18.18;64.25;99624.97;4967915;28;123708;-75
2022/10/19 01:40:46;;;;;;;7.37;5.20;;;17.70;97.30;;;18.19;64.34;99609.00;4958320;28;116122;-74
2022/10/19 01:43:35;;;;;;;6.10;4.83;;;17.70;97.40;;;18.21;64.43;99612.28;4965130;28;114781;-77
2022/10/19 01:46:19;;;;;;;9.90;6.03;;;17.70;97.40;;;18.21;64.60;99606.69;4964491;28;123985;-73
2022/10/19 01:48:57;;;;;;;7.73;5.70;;;17.80;97.50;;;18.22;64.39;99602.75;4953421;28;123691;-74
2022/10/19 01:51:33;;;;;;;7.87;6.00;;;17.70;97.50;;;18.23;64.75;99607.16;4962790;28;114524;-74
2022/10/19 01:54:05;;;;;;;11.20;5.50;;;17.80;97.70;;;18.23;64.72;99598.75;4963784;28;114028;-75
2022/10/19 01:56:35;;;;;;;9.73;5.97;;;17.80;97.70;;;18.20;64.85;99593.88;4967974;28;123682;-74
2022/10/19 01:59:05;;;;;;;9.50;6.30;;;17.80;97.80;;;18.19;65.17;99603.41;4967702;28;122801;-74
2022/10/19 02:01:34;;;;;;;12.80;5.83;;;17.70;97.90;;;18.20;65.06;99600.28;4969054;28;114195;-74
2022/10/19 02:04:02;;;;;;;11.13;7.40;;;17.70;97.90;;;18.20;65.21;99594.69;4969115;28;114075;-76
2022/10/19 02:06:29;;;;;;;15.10;7.30;;;17.90;98.10;;;18.20;65.34;99596.66;4969327;28;124360;-74
2022/10/19 02:08:55;;;;;;;10.33;6.23;;;17.70;98.10;;;18.18;65.54;99596.19;4969816;28;124441;-76
2022/10/19 02:11:22;;;;;;;17.20;7.50;;;17.70;98.10;;;18.18;65.49;99598.97;4963813;28;115951;-76
2022/10/19 02:13:58;;;;;;;13.77;7.30;;;17.70;98.20;;;18.19;65.72;99595.00;4964611;28;114036;-75
2022/10/19 02:16:51;;;;;;;12.60;6.40;;;17.70;98.40;;;18.20;65.69;99597.47;4962714;28;123786;-76
2022/10/19 02:19:21;;;;;;;16.97;7.90;;;17.70;98.40;;;18.21;65.76;99590.72;4956019;28;124034;-76
2022/10/19 02:21:48;;;;;;;20.57;9.00;;;17.70;98.40;;;18.24;65.90;99583.59;4949666;28;114301;-74
2022/10/19 02:24:14;;;;;;;17.63;7.60;;;17.70;98.40;;;18.25;65.88;99582.47;4981399;28;115922;-73
2022/10/19 02:26:41;;;;;;;11.63;6.90;;;17.80;98.50;;;18.27;65.90;99580.97;4964274;28;124177;-74
2022/10/19 02:29:09;;;;;;;10.23;6.30;;;17.70;98.50;;;18.27;65.78;99571.75;4962368;28;123778;-75
2022/10/19 02:31:36;;;;;;;24.63;11.13;;;17.80;98.60;;;18.29;66.02;99572.19;4965650;28;115920;-74
2022/10/19 02:34:03;;;;;;;28.53;12.90;;;17.80;98.60;;;18.26;66.29;99572.91;4960584;28;115573;-74
2022/10/19 02:36:30;;;;;;;22.70;10.40;;;17.80;98.80;;;18.23;66.44;99568.81;4955541;28;124288;-75
2022/10/19 02:38:57;;;;;;;18.03;9.97;;;17.70;98.80;;;18.22;66.56;99572.78;4953708;28;123842;-74
2022/10/19 02:41:36;;;;;;;21.70;11.10;;;17.70;98.90;;;18.23;66.63;99565.19;4957682;28;114235;-76
2022/10/19 02:44:28;;;;;;;23.03;10.50;;;17.70;99.00;;;18.22;66.82;99569.16;4963796;28;114159;-74
2022/10/19 02:47:17;;;;;;;20.40;9.50;;;17.70;99.00;;;18.20;66.83;99565.91;4964272;28;124597;-74
2022/10/19 02:49:45;;;;;;;16.77;9.03;;;17.70;99.10;;;18.20;66.97;99560.31;4957213;28;123395;-74
2022/10/19 02:52:13;;;;;;;26.73;12.17;;;17.70;99.10;;;18.21;67.04;99562.75;4964260;28;114293;-76
2022/10/19 02:54:42;;;;;;;23.70;10.23;;;17.70;99.20;;;18.20;67.05;99551.91;4962394;28;114042;-75
2022/10/19 02:57:26;;;;;;;17.57;11.37;;;17.70;99.30;;;18.18;67.09;99559.81;4961745;28;125807;-75
2022/10/19 02:59:52;;;;;;;19.87;10.90;;;17.70;99.30;;;18.17;67.37;99552.59;4963988;28;123822;-74
2022/10/19 03:02:20;;;;;;;19.93;10.53;;;17.70;99.40;;;18.17;67.39;99553.41;4963821;28;114380;-75
2022/10/19 03:04:47;;;;;;;18.37;9.77;;;17.70;99.40;;;18.19;67.47;99553.06;4961711;28;113775;-74
2022/10/19 03:07:17;;;;;;;28.93;11.40;;;17.70;99.50;;;18.19;67.55;99545.50;4968970;28;123626;-76
2022/10/19 03:09:44;;;;;;;20.20;10.50;;;17.70;99.50;;;18.22;67.72;99552.38;4960212;28;123600;-76
2022/10/19 03:12:12;;;;;;;19.10;10.77;;;17.70;99.60;;;18.24;67.57;99555.63;4971172;28;113654;-75
2022/10/19 03:14:39;;;;;;;22.57;12.30;;;17.70;99.60;;;18.24;67.50;99542.50;4969476;28;114077;-76
2022/10/19 03:17:06;;;;;;;23.00;12.20;;;17.80;99.70;;;18.26;67.59;99547.72;4966838;28;123903;-73
2022/10/19 03:19:34;;;;;;;21.17;10.90;;;17.80;99.70;;;18.27;67.52;99546.56;4966306;28;123799;-75
2022/10/19 03:22:01;;;;;;;26.47;11.57;;;17.80;99.80;;;18.29;67.58;99544.22;4953562;28;113354;-73
2022/10/19 03:24:30;;;;;;;20.37;11.17;;;17.80;99.80;;;18.30;67.64;99537.50;4968248;28;114649;-75
2022/10/19 03:26:56;;;;;;;23.53;11.50;;;17.80;99.80;;;18.33;67.60;99542.38;4969626;28;124225;-74
2022/10/19 03:29:23;;;;;;;20.23;11.73;;;17.80;99.80;;;18.34;67.55;99538.41;4968333;28;124520;-77
2022/10/19 03:31:49;;;;;;;22.57;11.57;;;17.80;99.80;;;18.33;67.59;99540.41;4967859;28;114282;-74
2022/10/19 03:34:16;;;;;;;19.60;10.23;;;17.80;99.80;;;18.32;67.61;99541.56;4968112;28;114142;-74
2022/10/19 03:36:43;;;;;;;21.20;10.70;;;17.80;99.80;;;18.34;67.71;99544.00;4955467;28;124525;-74
2022/10/19 03:39:12;;;;;;;19.87;11.07;;;17.80;99.80;;;18.35;67.55;99539.22;4954298;28;124350;-73
2022/10/19 03:41:39;;;;;;;22.43;11.90;;;17.90;99.90;;;18.38;67.39;99541.34;4963065;28;113551;-74
2022/10/19 03:44:08;;;;;;;22.73;10.43;;;17.90;99.90;;;18.37;67.43;99526.53;4969558;28;113587;-74
2022/10/19 03:46:35;;;;;;;22.87;11.97;;;17.90;99.90;;;18.40;67.45;99531.41;4978143;28;123135;-73
2022/10/19 03:49:03;;;;;;;23.40;11.23;;;17.90;99.90;;;18.40;67.18;99528.63;4955106;28;124412;-74
2022/10/19 03:51:31;;;;;;;20.63;10.30;;;17.90;99.90;;;18.40;67.45;99525.81;4964421;28;114015;-74
2022/10/19 03:54:11;;;;;;;20.27;10.83;;;17.90;99.90;;;18.42;67.37;99525.50;4963447;28;114170;-75
2022/10/19 03:56:38;;;;;;;23.90;12.07;;;17.90;99.90;;;18.38;67.34;99528.19;4955552;28;125418;-74
2022/10/19 03:59:06;;;;;;;19.90;10.10;;;17.90;99.90;;;18.34;67.35;99524.44;4952795;28;123781;-74
2022/10/19 04:01:39;;;;;;;25.60;10.90;;;17.80;99.80;;;18.33;67.40;99523.63;4955060;28;114319;-73
2022/10/19 04:04:12;;;;;;;22.87;11.67;;;17.80;99.90;;;18.34;67.39;99518.84;4964818;28;114130;-74
2022/10/19 04:06:41;;;;;;;22.07;11.00;;;17.80;99.90;;;18.33;67.42;99531.19;4958494;28;124155;-75
2022/10/19 04:09:13;;;;;;;20.50;10.63;;;17.80;99.80;;;18.33;67.44;99537.59;4951788;28;123975;-74
2022/10/19 04:11:41;;;;;;;18.73;9.83;;;17.80;99.90;;;18.32;67.53;99530.38;4945814;28;114564;-74
2022/10/19 04:14:10;;;;;;;17.93;10.10;;;17.80;99.90;;;18.35;67.46;99528.88;4965000;28;115935;-75
2022/10/19 04:16:37;;;;;;;21.87;11.40;;;17.90;99.90;;;18.37;67.42;99523.72;4962875;28;124604;-75
2022/10/19 04:19:03;;;;;;;24.27;10.23;;;17.90;99.90;;;18.38;67.25;99528.19;4954781;28;123934;-74
2022/10/19 04:21:36;;;;;;;20.93;10.10;;;17.90;99.90;;;18.35;67.50;99522.44;4967874;28;113469;-76
2022/10/19 04:24:07;;;;;;;32.77;12.80;;;17.80;99.80;;;18.33;67.44;99528.41;4942693;28;112851;-75
2022/10/19 04:26:39;;;;;;;21.13;11.10;;;17.80;99.90;;;18.30;67.43;99526.31;4949503;28;123845;-74
2022/10/19 04:29:06;;;;;;;16.00;8.90;;;17.80;99.90;;;18.29;67.42;99528.25;4962449;28;124124;-76
2022/10/19 04:31:32;;;;;;;22.17;10.63;;;17.80;99.90;;;18.29;67.61;99519.06;4961841;28;115461;-77
2022/10/19 04:33:59;;;;;;;18.73;10.60;;;17.80;99.90;;;18.31;67.48;99527.91;4960846;28;114117;-74
2022/10/19 04:36:25;;;;;;;25.40;11.27;;;17.80;99.90;;;18.33;67.43;99520.81;4956580;28;124107;-75
2022/10/19 04:38:52;;;;;;;18.53;10.30;;;17.80;99.90;;;18.35;67.54;99534.47;4961026;28;123184;-74
2022/10/19 04:41:21;;;;;;;22.63;11.17;;;17.90;99.90;;;18.37;67.33;99528.50;4963739;28;113979;-75
2022/10/19 04:43:52;;;;;;;16.93;8.90;;;17.90;99.90;;;18.39;67.45;99527.00;4953065;28;113871;-74
2022/10/19 04:46:19;;;;;;;18.60;9.73;;;17.90;99.90;;;18.42;67.32;99529.09;4954407;28;123981;-75
2022/10/19 04:48:47;;;;;;;17.47;9.53;;;17.90;99.90;;;18.42;67.14;99529.09;4958390;28;123302;-75
2022/10/19 04:51:14;;;;;;;20.90;11.37;;;17.90;99.90;;;18.44;67.23;99523.19;4963982;28;114202;-76
2022/10/19 04:53:43;;;;;;;26.90;11.33;;;17.90;99.90;;;18.42;67.19;99517.91;4961265;28;114283;-76
2022/10/19 04:56:15;;;;;;;29.47;12.83;;;17.90;99.90;;;18.44;67.17;99520.38;4950995;28;124346;-73
2022/10/19 04:58:41;;;;;;;20.73;10.77;;;17.90;99.90;;;18.42;67.23;99522.69;4947119;28;123957;-72
2022/10/19 05:01:12;;;;;;;27.90;13.03;;;17.90;99.90;;;18.40;67.35;99523.03;4946875;28;116238;-72
2022/10/19 05:03:42;;;;;;;21.00;12.00;;;17.90;99.90;;;18.41;67.27;99521.88;4963435;28;114722;-72
2022/10/19 05:06:10;;;;;;;23.10;11.30;;;17.90;99.90;;;18.40;67.26;99525.81;4946594;28;124409;-72
2022/10/19 05:08:37;;;;;;;20.43;10.90;;;17.90;99.90;;;18.40;67.28;99525.81;4950204;28;124244;-72
2022/10/19 05:11:13;;;;;;;24.03;11.60;;;17.90;99.90;;;18.40;67.29;99525.81;4951242;28;114256;-72
2022/10/19 05:13:40;;;;;;;19.90;12.83;;;17.90;99.90;;;18.39;67.30;99518.59;4955471;28;113829;-73
2022/10/19 05:16:12;;;;;;;23.10;13.20;;;17.90;99.90;;;18.36;67.00;99524.09;4934494;28;124683;-73
2022/10/19 05:18:38;;;;;;;16.20;10.23;;;17.90;99.80;;;18.31;66.88;99533.50;4961856;28;122845;-72
2022/10/19 05:21:13;;;;;;;16.30;9.30;;;17.80;99.70;;;18.29;66.54;99535.84;4951605;28;114254;-73
2022/10/19 05:23:40;;;;;;;12.50;8.83;;;17.80;99.70;;;18.26;67.22;99531.75;4952714;28;114046;-74
2022/10/19 05:26:11;;;;;;;15.37;9.50;;;17.80;99.70;;;18.26;66.98;99530.94;4960814;28;123982;-72
2022/10/19 05:28:38;;;;;;;14.73;9.30;;;17.80;99.70;;;18.26;66.98;99537.34;4954985;28;124864;-73
2022/10/19 05:31:14;;;;;;;16.63;9.67;;;17.80;99.70;;;18.28;66.97;99528.63;4953559;28;112996;-81
2022/10/19 05:33:42;;;;;;;15.87;10.10;;;17.80;99.60;;;18.27;66.81;99529.78;4952410;28;113984;-73
2022/10/19 05:36:24;;;;;;;14.97;9.20;;;17.80;99.60;;;18.27;66.64;99527.00;4952508;28;124062;-74
2022/10/19 05:38:54;;;;;;;13.13;8.70;;;17.80;99.50;;;18.25;66.72;99532.13;4952004;28;123480;-72
2022/10/19 05:41:22;;;;;;;13.23;8.77;;;17.70;99.40;;;18.23;66.51;99526.84;4967260;28;114166;-73
2022/10/19 05:43:57;;;;;;;13.20;8.77;;;17.80;99.50;;;18.22;66.53;99532.81;4943556;28;112959;-73
2022/10/19 05:46:25;;;;;;;14.17;9.40;;;17.70;99.40;;;18.20;66.52;99533.13;4944725;28;123734;-73
2022/10/19 05:48:52;;;;;;;13.67;8.50;;;17.70;99.40;;;18.21;66.54;99528.34;4951463;28;123906;-74
2022/10/19 05:51:21;;;;;;;15.77;8.50;;;17.70;99.40;;;18.20;66.61;99523.94;4969708;28;115050;-73
2022/10/19 05:53:47;;;;;;;13.50;8.70;;;17.70;99.40;;;18.22;66.57;99524.41;4959009;28;115199;-73
2022/10/19 05:56:21;;;;;;;12.60;7.90;;;17.90;99.40;;;18.24;66.47;99527.66;4956767;28;125194;-85
2022/10/19 05:58:48;;;;;;;12.10;8.60;;;17.70;99.40;;;18.24;66.58;99528.50;4948468;28;124138;-73
2022/10/19 06:01:20;;;;;;;10.30;8.20;;;17.80;99.40;;;18.24;66.40;99527.66;4956087;28;114272;-72
2022/10/19 06:03:51;;;;;;;12.73;8.47;;;17.80;99.40;;;18.25;66.40;99524.53;4950709;28;114270;-72
2022/10/19 06:06:18;;;;;;;18.00;9.93;;;17.80;99.30;;;18.25;66.47;99529.31;4963135;28;123999;-72
2022/10/19 06:08:46;;;;;;;14.10;8.77;;;17.70;99.30;;;18.24;66.32;99541.66;4950221;28;123896;-72
2022/10/19 06:11:17;;;;;;;15.63;10.23;;;17.70;99.30;;;18.21;66.50;99540.34;4949271;28;114057;-72
2022/10/19 06:13:46;;;;;;;17.60;10.97;;;17.70;99.60;;;18.18;66.46;99540.25;4951216;28;113952;-72
2022/10/19 06:16:15;;;;;;;16.43;11.33;;;17.70;99.40;;;18.17;66.52;99541.41;4950828;28;124059;-73
2022/10/19 06:18:41;;;;;;;14.33;9.70;;;17.80;99.40;;;18.16;66.67;99535.00;4950603;28;123037;-72
2022/10/19 06:21:15;;;;;;;14.30;10.37;;;17.70;99.40;;;18.16;66.57;99543.41;4951654;28;114662;-73
2022/10/19 06:23:42;;;;;;;16.10;10.57;;;17.70;99.40;;;18.16;66.57;99536.97;4947674;28;113788;-73
2022/10/19 06:26:12;;;;;;;14.10;10.23;;;17.70;99.40;;;18.15;66.64;99535.34;4948840;28;124133;-73
2022/10/19 06:28:41;;;;;;;11.63;8.70;;;17.60;99.50;;;18.15;66.64;99540.94;4951562;28;123864;-74
2022/10/19 06:31:09;;;;;;;16.10;10.83;;;17.70;99.50;;;18.14;66.66;99542.91;4953943;28;114382;-72
2022/10/19 06:33:36;;;;;;;10.23;7.73;;;17.60;99.50;;;18.15;66.75;99538.94;4949339;28;114174;-73
2022/10/19 06:36:15;;;;;;;12.13;9.17;;;17.60;99.50;;;18.17;66.60;99544.22;4950297;28;123871;-73
2022/10/19 06:38:42;;;;;;;11.83;8.03;;;17.70;99.50;;;18.17;66.67;99547.00;4956289;28;124600;-78
2022/10/19 06:41:10;;;;;;;14.00;9.87;;;17.70;99.50;;;18.19;66.75;99550.25;4954932;28;115191;-73
2022/10/19 06:43:36;;;;;;;11.40;8.53;;;17.70;99.50;;;18.19;66.57;99551.09;4947007;28;113889;-73
2022/10/19 06:46:16;;;;;;;14.07;9.00;;;17.70;99.50;;;18.19;66.41;99548.31;4957515;28;124465;-73
2022/10/19 06:48:42;;;;;;;14.40;10.03;;;17.70;99.40;;;18.17;66.63;99552.59;4948752;28;123944;-73
2022/10/19 06:51:09;;;;;;;13.73;9.07;;;17.70;99.40;;;18.17;66.48;99555.41;4954766;28;114296;-88
2022/10/19 06:53:36;;;;;;;15.90;10.73;;;17.60;99.40;;;18.17;66.48;99556.22;4950310;28;114010;-74
2022/10/19 06:56:05;;;;;;;13.23;8.97;;;17.70;99.50;;;18.17;66.38;99561.00;4951709;28;125111;-73
2022/10/19 06:58:36;;;;;;;11.10;8.87;;;17.70;99.70;;;18.16;66.36;99560.19;4951709;28;123853;-73
2022/10/19 07:01:06;;;;;;;17.77;11.40;;;17.70;99.40;;;18.18;66.47;99549.44;4954955;28;115885;-74
2022/10/19 07:03:33;;;;;;;15.90;11.30;;;17.70;99.70;;;18.16;66.50;99548.16;4952927;28;114121;-70
2022/10/19 07:06:04;;;;;;;12.00;8.30;;;17.60;99.40;;;18.15;66.49;99557.72;4951718;28;124082;-74
2022/10/19 07:08:33;;;;;;;21.20;10.20;;;17.60;99.40;;;18.16;66.66;99550.94;4958141;28;123888;-75
2022/10/19 07:11:04;;;;;;;13.50;8.80;;;17.60;99.40;;;18.17;66.35;99561.00;4948443;28;113991;-73
2022/10/19 07:13:30;;;;;;;11.50;8.67;;;17.60;99.50;;;18.18;66.53;99562.63;4965540;28;114100;-73
2022/10/19 07:15:59;;;;;;;16.10;8.67;;;17.60;99.40;;;18.17;66.29;99561.81;4948113;28;124019;-73
2022/10/19 07:18:26;;;;;;;15.37;9.67;;;17.70;99.40;;;18.16;66.38;99559.34;4947982;28;123634;-72
2022/10/19 07:20:58;;;;;;;15.80;10.43;;;17.70;99.40;;;18.17;66.52;99566.59;4945779;28;114309;-73
2022/10/19 07:23:28;;;;;;;11.80;8.20;;;17.70;99.40;;;18.17;66.57;99569.38;4956739;28;114196;-73
2022/10/19 07:25:59;;;;;;;15.80;9.00;;;17.70;99.70;;;18.19;66.41;99553.06;4955013;28;125029;-73
2022/10/19 07:28:28;;;;;;;17.17;8.70;;;17.70;99.40;;;18.20;66.50;99555.50;4964237;28;124064;-73
2022/10/19 07:30:55;;;;;;;15.03;8.80;;;17.70;99.40;;;18.25;66.37;99562.88;4952848;28;115884;-75
2022/10/19 07:33:22;;;;;;;12.40;8.87;;;17.70;99.40;;;18.28;66.23;99557.41;4965883;28;114032;-75
2022/10/19 07:35:49;;;;;;;13.20;8.80;;;17.80;99.40;;;18.30;66.27;99559.88;4947508;28;124048;-74
2022/10/19 07:38:15;;;;;;;11.90;8.20;;;17.90;99.40;;;18.33;66.16;99550.78;4964719;28;123781;-73
2022/10/19 07:40:41;;;;;;;12.93;9.03;;;17.80;99.30;;;18.38;66.03;99556.16;4966686;28;113212;-73
2022/10/19 07:43:08;;;;;;;17.63;9.03;;;17.80;99.30;;;18.42;65.95;99545.91;4961953;28;114564;-74
2022/10/19 07:45:34;;;;;;;16.40;8.90;;;17.90;99.30;;;18.42;65.71;99557.09;4962720;28;123974;-73
2022/10/19 07:48:01;;;;;;;12.33;7.53;;;17.90;99.20;;;18.43;65.32;99558.75;4961706;28;123914;-73
2022/10/19 07:50:27;;;;;;;9.97;7.40;;;17.80;99.10;;;18.45;65.70;99556.38;4967093;28;114298;-76
2022/10/19 07:52:54;;;;;;;10.93;7.87;;;17.90;99.10;;;18.50;65.73;99556.16;4963928;28;114332;-75
2022/10/19 07:55:20;;;;;;;9.97;6.93;;;17.90;99.10;;;18.54;65.39;99550.72;4962895;28;123987;-75
2022/10/19 07:57:49;;;;;;;8.53;6.70;;;18.00;99.10;;;18.58;65.35;99551.63;4957460;28;123831;-74
2022/10/19 08:00:16;;;;;;;9.03;7.93;;;18.00;99.00;;;18.62;65.19;99549.78;4966778;28;114559;-74
2022/10/19 08:02:43;;;;;;;11.17;8.30;;;18.00;99.00;;;18.63;64.94;99559.00;4965845;28;114743;-74
2022/10/19 08:05:10;;;;;;;11.27;7.40;;;18.00;98.90;;;18.61;64.86;99552.91;4964286;28;124395;-74
2022/10/19 08:07:37;;;;;;;10.97;7.57;;;18.00;98.80;;;18.60;64.72;99549.31;4963577;28;123733;-74
2022/10/19 08:10:04;;;;;;;10.00;7.27;;;18.00;98.80;;;18.61;64.84;99552.91;4961941;28;114157;-74
2022/10/19 08:12:34;;;;;;;10.37;6.90;;;18.00;98.70;;;18.61;64.62;99556.53;4958160;28;113595;-73
2022/10/19 08:15:00;;;;;;;8.50;6.70;;;18.20;98.70;;;18.63;64.49;99550.59;4960967;28;124175;-73
2022/10/19 08:17:27;;;;;;;9.33;5.30;;;18.10;98.60;;;18.68;64.54;99554.00;4962777;28;123969;-73
2022/10/19 08:19:53;;;;;;;10.00;6.30;;;18.10;98.60;;;18.71;64.37;99558.06;4960372;28;115091;-73
2022/10/19 08:22:20;;;;;;;9.10;6.00;;;18.10;98.50;;;18.72;64.23;99559.69;4952158;28;115529;-73
2022/10/19 08:24:48;;;;;;;9.70;5.73;;;18.10;98.40;;;18.72;64.10;99554.09;4961456;28;124027;-74
2022/10/19 08:27:15;;;;;;;8.47;5.70;;;18.10;98.30;;;18.71;63.84;99555.28;4965814;28;122711;-74
2022/10/19 08:29:42;;;;;;;9.03;6.50;;;18.10;98.30;;;18.71;64.03;99550.50;4961531;28;114379;-75
2022/10/19 08:32:08;;;;;;;7.57;5.73;;;18.10;98.20;;;18.69;63.98;99550.00;4957618;28;113521;-74
2022/10/19 08:34:35;;;;;;;9.20;5.93;;;18.10;98.20;;;18.71;64.06;99547.69;4965421;28;123310;-73
2022/10/19 08:37:02;;;;;;;9.07;6.27;;;18.20;98.20;;;18.72;63.82;99548.50;4959998;28;123670;-73
2022/10/19 08:39:29;;;;;;;8.77;5.80;;;18.20;98.20;;;18.75;63.79;99547.81;4955083;28;114534;-72
2022/10/19 08:42:12;;;;;;;11.83;5.90;;;18.20;98.10;;;18.78;63.89;99552.75;4967121;28;114214;-73
2022/10/19 08:45:07;;;;;;;7.17;5.57;;;18.20;98.10;;;18.83;63.67;99560.91;4967467;28;124351;-73
2022/10/19 08:47:54;;;;;;;9.57;7.03;;;18.30;98.10;;;18.87;63.59;99561.84;4957398;28;123860;-73
2022/10/19 08:50:34;;;;;;;12.47;6.17;;;18.30;98.00;;;18.87;63.38;99556.25;4967951;28;112938;-72
2022/10/19 08:53:06;;;;;;;8.23;5.40;;;18.30;97.90;;;18.88;63.50;99562.66;4956477;28;113429;-72
2022/10/19 08:55:54;;;;;;;9.00;6.03;;;18.30;97.90;;;18.89;63.22;99561.50;4956493;28;124460;-74
2022/10/19 08:59:13;;;;;;;10.80;5.80;;;18.30;97.80;;;18.82;62.98;99564.88;4968316;28;127284;-72
2022/10/19 09:02:03;;;;;;;8.17;5.77;;;18.30;97.60;;;18.78;63.01;99552.75;4942262;28;113748;-73
2022/10/19 09:04:38;;;;;;;7.83;5.83;;;18.20;97.60;;;18.78;62.80;99552.75;4952987;28;114047;-72
2022/10/19 09:07:29;;;;;;;8.20;5.90;;;18.30;97.60;;;18.80;62.96;99550.41;4949861;28;124752;-73
2022/10/19 09:10:33;;;;;;;6.90;5.00;;;18.30;97.50;;;18.82;62.88;99550.88;4954799;28;124111;-73
2022/10/19 09:13:43;;;;;;;8.87;6.17;;;18.30;97.50;;;18.84;62.55;99540.16;4949564;28;114273;-73
2022/10/19 09:16:15;;;;;;;7.57;6.13;;;18.30;97.40;;;18.84;62.18;99548.56;4959866;28;114867;-73
2022/10/19 09:18:43;;;;;;;9.23;6.97;;;18.30;97.20;;;18.80;62.01;99539.19;4966741;28;124608;-74
2022/10/19 09:21:46;;;;;;;9.40;6.20;;;18.20;97.10;;;18.73;62.21;99544.56;4958601;28;122998;-73
2022/10/19 09:24:36;;;;;;;9.93;6.40;;;18.20;97.10;;;18.70;62.15;99536.84;4969843;28;114304;-73
2022/10/19 09:27:12;;;;;;;9.50;5.90;;;18.10;97.10;;;18.68;62.31;99534.38;4959070;28;114372;-72
2022/10/19 09:29:44;;;;;;;7.17;5.10;;;18.20;97.20;;;18.66;62.56;99530.31;4957602;28;124417;-71
2022/10/19 09:32:35;;;;;;;8.43;5.93;;;18.10;97.50;;;18.67;62.58;99537.53;4955606;28;123741;-72
2022/10/19 09:35:13;;;;;;;8.97;5.83;;;18.10;97.20;;;18.69;62.49;99532.41;4974667;28;114582;-72
2022/10/19 09:37:45;;;;;;;7.37;5.27;;;18.20;97.20;;;18.72;62.72;99537.31;4964579;28;113723;-72
2022/10/19 09:40:33;;;;;;;6.67;4.90;;;18.20;97.20;;;18.75;62.54;99537.47;4951775;28;123814;-73
2022/10/19 09:43:12;;;;;;;7.23;4.50;;;18.20;97.20;;;18.80;62.44;99536.41;4963687;28;123696;-71
2022/10/19 09:46:15;;;;;;;8.57;4.83;;;18.20;97.20;;;18.82;62.25;99531.28;4970019;28;114861;-73
2022/10/19 09:48:51;;;;;;;4.93;4.00;;;18.30;97.10;;;18.88;62.18;99531.84;4956484;28;113368;-72
2022/10/19 09:51:19;;;;;;;6.53;4.67;;;18.30;97.10;;;18.93;62.07;99537.22;4957046;28;124246;-74
2022/10/19 09:53:51;;;;;;;6.53;4.50;;;18.40;97.10;;;18.97;62.02;99536.19;4959793;28;124412;-73
2022/10/19 09:56:24;;;;;;;7.00;3.80;;;18.40;97.00;;;19.03;61.72;99541.56;4955234;28;114918;-74
2022/10/19 09:58:56;;;;;;;4.40;3.97;;;18.50;97.00;;;19.03;61.56;99536.75;4958330;28;113866;-73
2022/10/19 10:01:41;;;;;;;5.83;3.70;;;18.50;96.80;;;19.02;61.26;99545.50;4956673;28;124077;-73
2022/10/19 10:04:15;;;;;;;5.00;3.57;;;18.50;96.80;;;19.01;61.30;99538.28;4961623;28;123806;-73
2022/10/19 10:06:45;;;;;;;5.53;4.10;;;18.50;96.70;;;19.00;61.53;99537.47;4966492;28;114998;-74
2022/10/19 10:09:25;;;;;;;4.70;3.37;;;18.40;96.60;;;18.98;61.48;99531.38;4968920;28;115594;-73
2022/10/19 10:11:54;;;;;;;6.60;4.07;;;18.50;96.60;;;19.00;61.64;99539.47;4946344;28;124690;-73
2022/10/19 10:14:29;;;;;;;6.80;4.17;;;18.40;96.60;;;19.00;61.62;99531.06;4963989;28;123855;-73
2022/10/19 10:17:00;;;;;;;5.47;3.63;;;18.40;96.60;;;19.01;61.42;99527.06;4960576;28;114587;-73
2022/10/19 10:19:31;;;;;;;7.70;4.10;;;18.50;96.60;;;19.01;61.26;99530.69;4963712;28;114052;-73
2022/10/19 10:21:59;;;;;;;10.40;4.30;;;18.50;96.50;;;19.03;61.28;99524.75;4948731;28;123256;-72
2022/10/19 10:24:32;;;;;;;4.20;3.33;;;18.50;96.50;;;19.05;61.14;99525.19;4954018;28;123869;-73
2022/10/19 10:27:02;;;;;;;3.40;2.90;;;18.50;96.40;;;19.07;61.13;99537.69;4957304;28;114262;-74
2022/10/19 10:29:36;;;;;;;5.07;3.80;;;18.50;96.40;;;19.09;60.93;99531.72;4951541;28;114147;-73